Enterprise, North Carolina
Current Conditions -  °F | °C
As of 11:15 AM on Monday 24 Nov 2014 (Local Time) from KEXX Reporting Station
Broken Clouds Broken Clouds  
Wind Chill: 67°   Ceiling: 3400
Heat Index: 67°   Visibility: 10mi
Dew Point: 56°   Wind: 9mph
Humidity: 67%   Direction: 200°SSW
Pressure: 29.79"   Gusts: 21mph
Location:  35.7974°N, 80.2541°W
Report Text: KEXX 241615Z AUTO 20008G18KT 10SM SCT029 BKN034 20/13 A2979 RMK AO2 T01960133
Loading
Personal Weather Stations






























Interactive Weather Map New forecast layout! Learn more

10-Day Weather Forecast

Advertisements
Track Severe Weather on mobile